sensor_id;sensor_type;location;lat;lon;timestamp;P1;durP1;ratioP1;P2;durP2;ratioP2
4704;SDS011;2366;51.332;6.610;2023-04-05T00:01:07;10.40;;;6.40;;
4704;SDS011;2366;51.332;6.610;2023-04-05T00:03:32;11.20;;;5.47;;
4704;SDS011;2366;51.332;6.610;2023-04-05T00:05:59;10.00;;;6.10;;
4704;SDS011;2366;51.332;6.610;2023-04-05T00:08:26;9.30;;;5.47;;
4704;SDS011;2366;51.332;6.610;2023-04-05T00:10:52;9.67;;;5.70;;
4704;SDS011;2366;51.332;6.610;2023-04-05T00:13:18;8.27;;;5.83;;
4704;SDS011;2366;51.332;6.610;2023-04-05T00:15:44;9.00;;;5.63;;
4704;SDS011;2366;51.332;6.610;2023-04-05T00:18:09;17.63;;;6.13;;
4704;SDS011;2366;51.332;6.610;2023-04-05T00:20:46;13.73;;;5.95;;
4704;SDS011;2366;51.332;6.610;2023-04-05T00:23:12;11.32;;;5.80;;
4704;SDS011;2366;51.332;6.610;2023-04-05T00:25:38;10.43;;;5.40;;
4704;SDS011;2366;51.332;6.610;2023-04-05T00:28:03;11.20;;;6.33;;
4704;SDS011;2366;51.332;6.610;2023-04-05T00:30:29;10.00;;;5.83;;
4704;SDS011;2366;51.332;6.610;2023-04-05T00:32:54;14.80;;;6.10;;
4704;SDS011;2366;51.332;6.610;2023-04-05T00:35:20;11.77;;;6.80;;
4704;SDS011;2366;51.332;6.610;2023-04-05T00:37:45;10.40;;;5.90;;
4704;SDS011;2366;51.332;6.610;2023-04-05T00:40:10;11.93;;;6.70;;
4704;SDS011;2366;51.332;6.610;2023-04-05T00:42:36;11.87;;;7.03;;
4704;SDS011;2366;51.332;6.610;2023-04-05T00:45:01;22.67;;;6.97;;
4704;SDS011;2366;51.332;6.610;2023-04-05T00:47:27;13.93;;;7.47;;
4704;SDS011;2366;51.332;6.610;2023-04-05T00:49:52;15.93;;;7.33;;
4704;SDS011;2366;51.332;6.610;2023-04-05T00:52:18;11.87;;;7.10;;
4704;SDS011;2366;51.332;6.610;2023-04-05T00:54:43;8.60;;;6.43;;
4704;SDS011;2366;51.332;6.610;2023-04-05T00:57:09;15.53;;;7.40;;
4704;SDS011;2366;51.332;6.610;2023-04-05T00:59:35;14.73;;;7.20;;
4704;SDS011;2366;51.332;6.610;2023-04-05T01:04:53;10.45;;;5.47;;
4704;SDS011;2366;51.332;6.610;2023-04-05T01:07:27;8.18;;;6.05;;
4704;SDS011;2366;51.332;6.610;2023-04-05T01:10:11;11.93;;;6.68;;
4704;SDS011;2366;51.332;6.610;2023-04-05T01:12:38;14.32;;;7.75;;
4704;SDS011;2366;51.332;6.610;2023-04-05T01:15:04;10.20;;;6.45;;
4704;SDS011;2366;51.332;6.610;2023-04-05T01:17:31;17.27;;;5.80;;
4704;SDS011;2366;51.332;6.610;2023-04-05T01:20:02;11.00;;;6.18;;
4704;SDS011;2366;51.332;6.610;2023-04-05T01:28:33;12.30;;;6.20;;
4704;SDS011;2366;51.332;6.610;2023-04-05T01:31:28;16.63;;;7.30;;
4704;SDS011;2366;51.332;6.610;2023-04-05T01:37:02;14.55;;;7.20;;
4704;SDS011;2366;51.332;6.610;2023-04-05T01:39:31;13.45;;;7.78;;
4704;SDS011;2366;51.332;6.610;2023-04-05T01:42:00;12.25;;;6.90;;
4704;SDS011;2366;51.332;6.610;2023-04-05T01:44:27;12.55;;;8.20;;
4704;SDS011;2366;51.332;6.610;2023-04-05T01:46:52;12.05;;;6.45;;
4704;SDS011;2366;51.332;6.610;2023-04-05T01:49:18;11.37;;;7.13;;
4704;SDS011;2366;51.332;6.610;2023-04-05T01:51:44;14.27;;;7.68;;
4704;SDS011;2366;51.332;6.610;2023-04-05T01:54:09;13.63;;;7.27;;
4704;SDS011;2366;51.332;6.610;2023-04-05T01:56:35;11.13;;;7.73;;
4704;SDS011;2366;51.332;6.610;2023-04-05T01:59:00;12.70;;;7.43;;
4704;SDS011;2366;51.332;6.610;2023-04-05T02:01:25;14.90;;;8.03;;
4704;SDS011;2366;51.332;6.610;2023-04-05T02:03:51;16.83;;;7.40;;
4704;SDS011;2366;51.332;6.610;2023-04-05T02:06:16;14.93;;;7.93;;
4704;SDS011;2366;51.332;6.610;2023-04-05T02:08:41;9.93;;;7.90;;
4704;SDS011;2366;51.332;6.610;2023-04-05T02:11:07;12.07;;;7.50;;
4704;SDS011;2366;51.332;6.610;2023-04-05T02:13:32;12.00;;;6.97;;
4704;SDS011;2366;51.332;6.610;2023-04-05T02:15:58;25.23;;;7.90;;
4704;SDS011;2366;51.332;6.610;2023-04-05T02:18:23;10.33;;;7.10;;
4704;SDS011;2366;51.332;6.610;2023-04-05T02:21:00;13.77;;;8.43;;
4704;SDS011;2366;51.332;6.610;2023-04-05T02:23:26;12.13;;;7.57;;
4704;SDS011;2366;51.332;6.610;2023-04-05T02:25:54;11.98;;;7.28;;
4704;SDS011;2366;51.332;6.610;2023-04-05T02:28:20;9.03;;;8.07;;
4704;SDS011;2366;51.332;6.610;2023-04-05T02:30:45;15.67;;;7.13;;
4704;SDS011;2366;51.332;6.610;2023-04-05T02:33:10;14.70;;;8.33;;
4704;SDS011;2366;51.332;6.610;2023-04-05T02:35:36;14.30;;;8.00;;
4704;SDS011;2366;51.332;6.610;2023-04-05T02:38:02;10.77;;;6.77;;
4704;SDS011;2366;51.332;6.610;2023-04-05T02:40:28;19.40;;;8.32;;
4704;SDS011;2366;51.332;6.610;2023-04-05T02:42:54;19.73;;;8.60;;
4704;SDS011;2366;51.332;6.610;2023-04-05T02:45:20;13.03;;;7.40;;
4704;SDS011;2366;51.332;6.610;2023-04-05T02:47:45;11.90;;;7.10;;
4704;SDS011;2366;51.332;6.610;2023-04-05T02:50:10;15.97;;;9.20;;
4704;SDS011;2366;51.332;6.610;2023-04-05T02:52:36;16.17;;;7.07;;
4704;SDS011;2366;51.332;6.610;2023-04-05T02:55:02;12.87;;;7.50;;
4704;SDS011;2366;51.332;6.610;2023-04-05T02:57:30;11.13;;;7.43;;
4704;SDS011;2366;51.332;6.610;2023-04-05T02:59:55;13.80;;;8.80;;
4704;SDS011;2366;51.332;6.610;2023-04-05T03:02:21;16.40;;;8.77;;
4704;SDS011;2366;51.332;6.610;2023-04-05T03:04:46;16.00;;;7.83;;
4704;SDS011;2366;51.332;6.610;2023-04-05T03:07:11;11.10;;;7.03;;
4704;SDS011;2366;51.332;6.610;2023-04-05T03:09:43;14.50;;;7.82;;
4704;SDS011;2366;51.332;6.610;2023-04-05T03:12:10;12.85;;;7.70;;
4704;SDS011;2366;51.332;6.610;2023-04-05T03:14:36;14.80;;;7.90;;
4704;SDS011;2366;51.332;6.610;2023-04-05T03:17:02;11.02;;;7.63;;
4704;SDS011;2366;51.332;6.610;2023-04-05T03:19:27;12.40;;;8.13;;
4704;SDS011;2366;51.332;6.610;2023-04-05T03:21:53;12.00;;;8.70;;
4704;SDS011;2366;51.332;6.610;2023-04-05T03:24:18;14.50;;;9.03;;
4704;SDS011;2366;51.332;6.610;2023-04-05T03:26:47;13.60;;;8.43;;
4704;SDS011;2366;51.332;6.610;2023-04-05T03:29:13;17.20;;;9.35;;
4704;SDS011;2366;51.332;6.610;2023-04-05T03:31:38;16.63;;;8.47;;
4704;SDS011;2366;51.332;6.610;2023-04-05T03:34:04;17.10;;;8.40;;
4704;SDS011;2366;51.332;6.610;2023-04-05T03:36:29;11.83;;;7.67;;
4704;SDS011;2366;51.332;6.610;2023-04-05T03:39:05;14.68;;;6.90;;
4704;SDS011;2366;51.332;6.610;2023-04-05T03:41:31;14.30;;;8.90;;
4704;SDS011;2366;51.332;6.610;2023-04-05T03:43:56;11.73;;;8.23;;
4704;SDS011;2366;51.332;6.610;2023-04-05T03:46:21;17.67;;;9.20;;
4704;SDS011;2366;51.332;6.610;2023-04-05T03:48:47;14.67;;;9.47;;
4704;SDS011;2366;51.332;6.610;2023-04-05T03:51:12;16.03;;;7.57;;
4704;SDS011;2366;51.332;6.610;2023-04-05T03:53:37;15.50;;;8.90;;
4704;SDS011;2366;51.332;6.610;2023-04-05T03:56:03;13.47;;;7.90;;
4704;SDS011;2366;51.332;6.610;2023-04-05T03:58:28;12.90;;;9.60;;
4704;SDS011;2366;51.332;6.610;2023-04-05T04:00:54;10.40;;;8.20;;
4704;SDS011;2366;51.332;6.610;2023-04-05T04:03:20;13.63;;;7.80;;
4704;SDS011;2366;51.332;6.610;2023-04-05T04:05:46;15.37;;;8.73;;
4704;SDS011;2366;51.332;6.610;2023-04-05T04:08:11;14.40;;;8.70;;
4704;SDS011;2366;51.332;6.610;2023-04-05T04:10:37;16.27;;;8.10;;
4704;SDS011;2366;51.332;6.610;2023-04-05T04:13:03;13.77;;;8.60;;
4704;SDS011;2366;51.332;6.610;2023-04-05T04:15:28;14.60;;;8.30;;
4704;SDS011;2366;51.332;6.610;2023-04-05T04:17:53;14.97;;;8.27;;
4704;SDS011;2366;51.332;6.610;2023-04-05T04:20:19;15.50;;;8.97;;
4704;SDS011;2366;51.332;6.610;2023-04-05T04:22:45;16.48;;;8.90;;
4704;SDS011;2366;51.332;6.610;2023-04-05T04:25:12;18.85;;;8.18;;
4704;SDS011;2366;51.332;6.610;2023-04-05T04:27:39;18.90;;;8.77;;
4704;SDS011;2366;51.332;6.610;2023-04-05T04:30:10;17.55;;;9.70;;
4704;SDS011;2366;51.332;6.610;2023-04-05T04:32:39;15.90;;;9.95;;
4704;SDS011;2366;51.332;6.610;2023-04-05T04:35:19;21.02;;;10.70;;
4704;SDS011;2366;51.332;6.610;2023-04-05T04:37:54;16.45;;;10.48;;
4704;SDS011;2366;51.332;6.610;2023-04-05T04:40:24;16.85;;;11.20;;
4704;SDS011;2366;51.332;6.610;2023-04-05T04:42:51;15.55;;;9.77;;
4704;SDS011;2366;51.332;6.610;2023-04-05T04:45:18;16.80;;;9.50;;
4704;SDS011;2366;51.332;6.610;2023-04-05T04:47:44;18.27;;;11.52;;
4704;SDS011;2366;51.332;6.610;2023-04-05T04:50:11;18.95;;;10.20;;
4704;SDS011;2366;51.332;6.610;2023-04-05T04:52:37;16.73;;;10.05;;
4704;SDS011;2366;51.332;6.610;2023-04-05T04:55:04;15.20;;;9.40;;
4704;SDS011;2366;51.332;6.610;2023-04-05T04:57:32;20.40;;;11.80;;
4704;SDS011;2366;51.332;6.610;2023-04-05T04:59:57;21.60;;;10.70;;
4704;SDS011;2366;51.332;6.610;2023-04-05T05:02:23;18.73;;;11.60;;
4704;SDS011;2366;51.332;6.610;2023-04-05T05:04:49;18.70;;;10.75;;
4704;SDS011;2366;51.332;6.610;2023-04-05T05:07:15;17.50;;;11.10;;
4704;SDS011;2366;51.332;6.610;2023-04-05T05:09:41;13.00;;;9.60;;
4704;SDS011;2366;51.332;6.610;2023-04-05T05:12:07;42.10;;;11.97;;
4704;SDS011;2366;51.332;6.610;2023-04-05T05:14:32;18.90;;;9.97;;
4704;SDS011;2366;51.332;6.610;2023-04-05T05:16:57;17.10;;;10.50;;
4704;SDS011;2366;51.332;6.610;2023-04-05T05:19:23;24.53;;;10.47;;
4704;SDS011;2366;51.332;6.610;2023-04-05T05:21:48;17.33;;;9.23;;
4704;SDS011;2366;51.332;6.610;2023-04-05T05:24:15;15.10;;;10.75;;
4704;SDS011;2366;51.332;6.610;2023-04-05T05:26:41;24.07;;;9.60;;
4704;SDS011;2366;51.332;6.610;2023-04-05T05:29:06;19.07;;;10.00;;
4704;SDS011;2366;51.332;6.610;2023-04-05T05:31:32;21.63;;;11.30;;
4704;SDS011;2366;51.332;6.610;2023-04-05T05:33:57;15.60;;;10.93;;
4704;SDS011;2366;51.332;6.610;2023-04-05T05:36:23;19.70;;;11.00;;
4704;SDS011;2366;51.332;6.610;2023-04-05T05:38:49;14.52;;;9.95;;
4704;SDS011;2366;51.332;6.610;2023-04-05T05:41:16;14.50;;;9.00;;
4704;SDS011;2366;51.332;6.610;2023-04-05T05:43:42;11.70;;;8.60;;
4704;SDS011;2366;51.332;6.610;2023-04-05T05:46:07;18.53;;;9.10;;
4704;SDS011;2366;51.332;6.610;2023-04-05T05:48:33;17.70;;;9.13;;
4704;SDS011;2366;51.332;6.610;2023-04-05T05:50:58;12.50;;;9.73;;
4704;SDS011;2366;51.332;6.610;2023-04-05T05:53:25;11.00;;;8.48;;
4704;SDS011;2366;51.332;6.610;2023-04-05T05:55:51;11.50;;;8.17;;
4704;SDS011;2366;51.332;6.610;2023-04-05T05:58:16;12.30;;;9.00;;
4704;SDS011;2366;51.332;6.610;2023-04-05T06:00:42;15.17;;;8.93;;
4704;SDS011;2366;51.332;6.610;2023-04-05T06:03:08;19.33;;;9.43;;
4704;SDS011;2366;51.332;6.610;2023-04-05T06:05:33;24.53;;;9.80;;
4704;SDS011;2366;51.332;6.610;2023-04-05T06:07:59;15.70;;;9.10;;
4704;SDS011;2366;51.332;6.610;2023-04-05T06:10:25;19.03;;;9.70;;
4704;SDS011;2366;51.332;6.610;2023-04-05T06:12:51;15.10;;;9.00;;
4704;SDS011;2366;51.332;6.610;2023-04-05T06:15:16;16.23;;;8.70;;
4704;SDS011;2366;51.332;6.610;2023-04-05T06:17:42;25.47;;;11.10;;
4704;SDS011;2366;51.332;6.610;2023-04-05T06:20:08;25.93;;;8.70;;
4704;SDS011;2366;51.332;6.610;2023-04-05T06:22:35;17.95;;;8.18;;
4704;SDS011;2366;51.332;6.610;2023-04-05T06:25:01;21.50;;;9.30;;
4704;SDS011;2366;51.332;6.610;2023-04-05T06:27:27;26.43;;;9.03;;
4704;SDS011;2366;51.332;6.610;2023-04-05T06:29:52;21.40;;;9.57;;
4704;SDS011;2366;51.332;6.610;2023-04-05T06:32:19;22.73;;;9.38;;
4704;SDS011;2366;51.332;6.610;2023-04-05T06:34:45;20.57;;;9.37;;
4704;SDS011;2366;51.332;6.610;2023-04-05T06:37:12;14.20;;;8.15;;
4704;SDS011;2366;51.332;6.610;2023-04-05T06:39:38;15.00;;;8.10;;
4704;SDS011;2366;51.332;6.610;2023-04-05T06:42:04;19.80;;;8.17;;
4704;SDS011;2366;51.332;6.610;2023-04-05T06:44:29;14.13;;;7.57;;
4704;SDS011;2366;51.332;6.610;2023-04-05T06:46:54;8.83;;;7.00;;
4704;SDS011;2366;51.332;6.610;2023-04-05T06:49:20;20.70;;;8.23;;
4704;SDS011;2366;51.332;6.610;2023-04-05T06:51:45;12.37;;;7.03;;
4704;SDS011;2366;51.332;6.610;2023-04-05T06:54:11;14.03;;;7.50;;
4704;SDS011;2366;51.332;6.610;2023-04-05T06:56:36;11.10;;;7.10;;
4704;SDS011;2366;51.332;6.610;2023-04-05T06:59:02;13.35;;;6.97;;
4704;SDS011;2366;51.332;6.610;2023-04-05T07:01:29;9.90;;;6.65;;
4704;SDS011;2366;51.332;6.610;2023-04-05T07:03:54;10.00;;;6.50;;
4704;SDS011;2366;51.332;6.610;2023-04-05T07:06:20;11.70;;;7.57;;
4704;SDS011;2366;51.332;6.610;2023-04-05T07:08:47;8.90;;;7.00;;
4704;SDS011;2366;51.332;6.610;2023-04-05T07:11:13;17.83;;;6.70;;
4704;SDS011;2366;51.332;6.610;2023-04-05T07:13:39;8.60;;;6.30;;
4704;SDS011;2366;51.332;6.610;2023-04-05T07:16:05;9.13;;;6.27;;
4704;SDS011;2366;51.332;6.610;2023-04-05T07:18:30;8.40;;;6.50;;
4704;SDS011;2366;51.332;6.610;2023-04-05T07:20:56;9.63;;;6.70;;
4704;SDS011;2366;51.332;6.610;2023-04-05T07:23:26;11.20;;;7.10;;
4704;SDS011;2366;51.332;6.610;2023-04-05T07:25:52;8.03;;;6.10;;
4704;SDS011;2366;51.332;6.610;2023-04-05T07:28:18;11.23;;;6.27;;
4704;SDS011;2366;51.332;6.610;2023-04-05T07:30:43;8.87;;;6.10;;
4704;SDS011;2366;51.332;6.610;2023-04-05T07:33:09;10.37;;;6.10;;
4704;SDS011;2366;51.332;6.610;2023-04-05T07:35:35;6.97;;;6.07;;
4704;SDS011;2366;51.332;6.610;2023-04-05T07:38:00;7.90;;;5.67;;
4704;SDS011;2366;51.332;6.610;2023-04-05T07:40:26;13.53;;;6.00;;
4704;SDS011;2366;51.332;6.610;2023-04-05T07:42:51;10.30;;;6.00;;
4704;SDS011;2366;51.332;6.610;2023-04-05T07:45:18;6.20;;;5.63;;
4704;SDS011;2366;51.332;6.610;2023-04-05T07:47:43;10.30;;;5.70;;
4704;SDS011;2366;51.332;6.610;2023-04-05T07:50:10;11.30;;;7.17;;
4704;SDS011;2366;51.332;6.610;2023-04-05T07:52:38;8.80;;;7.30;;
4704;SDS011;2366;51.332;6.610;2023-04-05T07:55:04;6.70;;;6.10;;
4704;SDS011;2366;51.332;6.610;2023-04-05T07:57:31;12.03;;;8.20;;
4704;SDS011;2366;51.332;6.610;2023-04-05T07:59:56;8.10;;;6.03;;
4704;SDS011;2366;51.332;6.610;2023-04-05T08:02:21;8.63;;;6.73;;
4704;SDS011;2366;51.332;6.610;2023-04-05T08:04:47;8.33;;;5.83;;
4704;SDS011;2366;51.332;6.610;2023-04-05T08:07:12;7.43;;;5.90;;
4704;SDS011;2366;51.332;6.610;2023-04-05T08:09:38;7.13;;;6.10;;
4704;SDS011;2366;51.332;6.610;2023-04-05T08:12:03;8.70;;;7.10;;
4704;SDS011;2366;51.332;6.610;2023-04-05T08:14:29;11.47;;;6.70;;
4704;SDS011;2366;51.332;6.610;2023-04-05T08:16:54;5.93;;;5.40;;
4704;SDS011;2366;51.332;6.610;2023-04-05T08:19:19;14.77;;;7.60;;
4704;SDS011;2366;51.332;6.610;2023-04-05T08:21:45;8.47;;;6.90;;
4704;SDS011;2366;51.332;6.610;2023-04-05T08:24:10;7.20;;;5.80;;
4704;SDS011;2366;51.332;6.610;2023-04-05T08:26:36;8.10;;;5.77;;
4704;SDS011;2366;51.332;6.610;2023-04-05T08:29:01;8.13;;;6.23;;
4704;SDS011;2366;51.332;6.610;2023-04-05T08:31:28;7.10;;;6.40;;
4704;SDS011;2366;51.332;6.610;2023-04-05T08:33:54;7.33;;;6.60;;
4704;SDS011;2366;51.332;6.610;2023-04-05T08:36:19;6.80;;;5.97;;
4704;SDS011;2366;51.332;6.610;2023-04-05T08:38:44;7.47;;;5.63;;
4704;SDS011;2366;51.332;6.610;2023-04-05T08:41:13;6.60;;;5.90;;
4704;SDS011;2366;51.332;6.610;2023-04-05T08:46:07;8.40;;;6.60;;
4704;SDS011;2366;51.332;6.610;2023-04-05T08:48:34;7.87;;;6.10;;
4704;SDS011;2366;51.332;6.610;2023-04-05T08:51:00;9.80;;;6.20;;
4704;SDS011;2366;51.332;6.610;2023-04-05T08:53:26;7.20;;;6.50;;
4704;SDS011;2366;51.332;6.610;2023-04-05T08:55:54;8.63;;;6.67;;
4704;SDS011;2366;51.332;6.610;2023-04-05T08:58:21;14.73;;;5.50;;
4704;SDS011;2366;51.332;6.610;2023-04-05T09:00:48;6.73;;;5.50;;
4704;SDS011;2366;51.332;6.610;2023-04-05T09:03:16;9.07;;;6.23;;
4704;SDS011;2366;51.332;6.610;2023-04-05T09:05:47;6.97;;;6.27;;
4704;SDS011;2366;51.332;6.610;2023-04-05T09:08:17;8.77;;;6.77;;
4704;SDS011;2366;51.332;6.610;2023-04-05T09:10:45;12.97;;;7.47;;
4704;SDS011;2366;51.332;6.610;2023-04-05T09:13:10;13.03;;;7.40;;
4704;SDS011;2366;51.332;6.610;2023-04-05T09:15:36;8.33;;;7.57;;
4704;SDS011;2366;51.332;6.610;2023-04-05T09:18:02;9.33;;;6.93;;
4704;SDS011;2366;51.332;6.610;2023-04-05T09:20:27;10.83;;;6.60;;
4704;SDS011;2366;51.332;6.610;2023-04-05T09:22:54;8.37;;;7.23;;
4704;SDS011;2366;51.332;6.610;2023-04-05T09:27:58;11.03;;;7.40;;
4704;SDS011;2366;51.332;6.610;2023-04-05T09:30:24;8.83;;;6.97;;
4704;SDS011;2366;51.332;6.610;2023-04-05T09:32:51;11.30;;;7.50;;
4704;SDS011;2366;51.332;6.610;2023-04-05T09:35:20;11.20;;;7.67;;
4704;SDS011;2366;51.332;6.610;2023-04-05T09:38:07;8.87;;;6.70;;
4704;SDS011;2366;51.332;6.610;2023-04-05T09:40:45;9.17;;;6.47;;
4704;SDS011;2366;51.332;6.610;2023-04-05T09:43:11;9.50;;;7.70;;
4704;SDS011;2366;51.332;6.610;2023-04-05T09:45:39;16.50;;;7.57;;
4704;SDS011;2366;51.332;6.610;2023-04-05T09:48:06;7.90;;;7.03;;
4704;SDS011;2366;51.332;6.610;2023-04-05T09:50:33;9.83;;;6.40;;
4704;SDS011;2366;51.332;6.610;2023-04-05T09:53:08;7.90;;;6.67;;
4704;SDS011;2366;51.332;6.610;2023-04-05T09:55:40;9.70;;;7.87;;
4704;SDS011;2366;51.332;6.610;2023-04-05T09:58:10;10.20;;;6.40;;
4704;SDS011;2366;51.332;6.610;2023-04-05T10:00:48;7.57;;;6.27;;
4704;SDS011;2366;51.332;6.610;2023-04-05T10:03:17;11.70;;;7.83;;
4704;SDS011;2366;51.332;6.610;2023-04-05T10:05:44;11.52;;;8.43;;
4704;SDS011;2366;51.332;6.610;2023-04-05T10:08:09;9.67;;;6.83;;
4704;SDS011;2366;51.332;6.610;2023-04-05T10:10:36;9.30;;;6.90;;
4704;SDS011;2366;51.332;6.610;2023-04-05T10:13:08;10.32;;;8.10;;
4704;SDS011;2366;51.332;6.610;2023-04-05T10:15:33;13.57;;;8.23;;
4704;SDS011;2366;51.332;6.610;2023-04-05T10:18:02;8.70;;;7.18;;
4704;SDS011;2366;51.332;6.610;2023-04-05T10:20:39;10.30;;;7.03;;
4704;SDS011;2366;51.332;6.610;2023-04-05T10:23:12;11.32;;;6.63;;
4704;SDS011;2366;51.332;6.610;2023-04-05T10:25:53;7.80;;;7.07;;
4704;SDS011;2366;51.332;6.610;2023-04-05T10:34:06;16.65;;;6.43;;
4704;SDS011;2366;51.332;6.610;2023-04-05T10:36:48;8.40;;;6.03;;
4704;SDS011;2366;51.332;6.610;2023-04-05T10:39:22;9.43;;;7.20;;
4704;SDS011;2366;51.332;6.610;2023-04-05T10:41:52;14.57;;;7.55;;
4704;SDS011;2366;51.332;6.610;2023-04-05T10:44:18;9.82;;;6.78;;
4704;SDS011;2366;51.332;6.610;2023-04-05T10:46:44;14.30;;;7.53;;
4704;SDS011;2366;51.332;6.610;2023-04-05T10:51:54;6.85;;;6.05;;
4704;SDS011;2366;51.332;6.610;2023-04-05T10:54:20;10.63;;;9.03;;
4704;SDS011;2366;51.332;6.610;2023-04-05T10:56:46;10.30;;;8.25;;
4704;SDS011;2366;51.332;6.610;2023-04-05T10:59:12;11.53;;;7.30;;
4704;SDS011;2366;51.332;6.610;2023-04-05T11:01:39;9.13;;;6.80;;
4704;SDS011;2366;51.332;6.610;2023-04-05T11:04:15;10.18;;;8.05;;
4704;SDS011;2366;51.332;6.610;2023-04-05T11:06:41;11.70;;;7.15;;
4704;SDS011;2366;51.332;6.610;2023-04-05T11:09:19;8.95;;;8.05;;
4704;SDS011;2366;51.332;6.610;2023-04-05T11:11:46;11.68;;;8.65;;
4704;SDS011;2366;51.332;6.610;2023-04-05T11:17:02;13.02;;;7.07;;
4704;SDS011;2366;51.332;6.610;2023-04-05T11:22:27;12.25;;;7.13;;
4704;SDS011;2366;51.332;6.610;2023-04-05T11:27:32;8.90;;;7.32;;
4704;SDS011;2366;51.332;6.610;2023-04-05T11:30:01;10.82;;;7.25;;
4704;SDS011;2366;51.332;6.610;2023-04-05T11:32:40;11.68;;;7.20;;
4704;SDS011;2366;51.332;6.610;2023-04-05T11:35:16;12.15;;;7.07;;
4704;SDS011;2366;51.332;6.610;2023-04-05T11:40:36;10.60;;;7.25;;
4704;SDS011;2366;51.332;6.610;2023-04-05T11:43:08;9.15;;;7.65;;
4704;SDS011;2366;51.332;6.610;2023-04-05T11:45:36;10.65;;;8.00;;
4704;SDS011;2366;51.332;6.610;2023-04-05T11:48:05;8.50;;;7.60;;
4704;SDS011;2366;51.332;6.610;2023-04-05T11:50:32;8.43;;;7.35;;
4704;SDS011;2366;51.332;6.610;2023-04-05T11:55:37;16.35;;;7.55;;
4704;SDS011;2366;51.332;6.610;2023-04-05T11:58:17;7.05;;;6.47;;
4704;SDS011;2366;51.332;6.610;2023-04-05T12:00:45;10.95;;;7.28;;
4704;SDS011;2366;51.332;6.610;2023-04-05T12:03:12;8.30;;;7.50;;
4704;SDS011;2366;51.332;6.610;2023-04-05T12:05:48;7.68;;;6.47;;
4704;SDS011;2366;51.332;6.610;2023-04-05T12:08:14;8.95;;;8.15;;
4704;SDS011;2366;51.332;6.610;2023-04-05T12:10:40;9.50;;;7.45;;
4704;SDS011;2366;51.332;6.610;2023-04-05T12:13:06;10.07;;;8.80;;
4704;SDS011;2366;51.332;6.610;2023-04-05T12:15:31;9.00;;;8.10;;
4704;SDS011;2366;51.332;6.610;2023-04-05T12:18:02;16.23;;;8.57;;
4704;SDS011;2366;51.332;6.610;2023-04-05T12:20:27;9.70;;;7.87;;
4704;SDS011;2366;51.332;6.610;2023-04-05T12:22:54;9.07;;;8.17;;
4704;SDS011;2366;51.332;6.610;2023-04-05T12:25:20;14.18;;;9.82;;
4704;SDS011;2366;51.332;6.610;2023-04-05T12:27:46;9.80;;;8.18;;
4704;SDS011;2366;51.332;6.610;2023-04-05T12:30:13;12.80;;;8.33;;
4704;SDS011;2366;51.332;6.610;2023-04-05T12:32:54;12.18;;;7.85;;
4704;SDS011;2366;51.332;6.610;2023-04-05T12:35:22;12.48;;;8.52;;
4704;SDS011;2366;51.332;6.610;2023-04-05T12:38:01;12.20;;;9.10;;
4704;SDS011;2366;51.332;6.610;2023-04-05T12:40:29;13.23;;;9.95;;
4704;SDS011;2366;51.332;6.610;2023-04-05T12:43:07;11.52;;;7.95;;
4704;SDS011;2366;51.332;6.610;2023-04-05T12:45:33;9.23;;;8.20;;
4704;SDS011;2366;51.332;6.610;2023-04-05T12:48:13;11.50;;;8.70;;
4704;SDS011;2366;51.332;6.610;2023-04-05T12:50:44;9.75;;;8.32;;
4704;SDS011;2366;51.332;6.610;2023-04-05T12:53:20;14.80;;;9.75;;
4704;SDS011;2366;51.332;6.610;2023-04-05T12:55:51;17.55;;;8.75;;
4704;SDS011;2366;51.332;6.610;2023-04-05T12:58:18;9.77;;;7.60;;
4704;SDS011;2366;51.332;6.610;2023-04-05T13:00:44;10.25;;;8.18;;
4704;SDS011;2366;51.332;6.610;2023-04-05T13:03:17;14.27;;;8.73;;
4704;SDS011;2366;51.332;6.610;2023-04-05T13:05:44;11.90;;;8.75;;
4704;SDS011;2366;51.332;6.610;2023-04-05T13:08:11;16.05;;;9.15;;
4704;SDS011;2366;51.332;6.610;2023-04-05T13:10:36;13.47;;;8.50;;
4704;SDS011;2366;51.332;6.610;2023-04-05T13:13:02;15.40;;;8.93;;
4704;SDS011;2366;51.332;6.610;2023-04-05T13:15:27;11.13;;;8.70;;
4704;SDS011;2366;51.332;6.610;2023-04-05T13:17:52;13.03;;;9.30;;
4704;SDS011;2366;51.332;6.610;2023-04-05T13:20:19;22.10;;;8.93;;
4704;SDS011;2366;51.332;6.610;2023-04-05T13:22:44;16.47;;;9.57;;
4704;SDS011;2366;51.332;6.610;2023-04-05T13:25:10;10.33;;;8.50;;
4704;SDS011;2366;51.332;6.610;2023-04-05T13:27:36;10.03;;;8.27;;
4704;SDS011;2366;51.332;6.610;2023-04-05T13:30:01;13.33;;;9.57;;
4704;SDS011;2366;51.332;6.610;2023-04-05T13:32:27;13.10;;;9.05;;
4704;SDS011;2366;51.332;6.610;2023-04-05T13:34:53;10.13;;;9.10;;
4704;SDS011;2366;51.332;6.610;2023-04-05T13:37:18;12.63;;;8.80;;
4704;SDS011;2366;51.332;6.610;2023-04-05T13:39:44;10.87;;;9.00;;
4704;SDS011;2366;51.332;6.610;2023-04-05T13:42:10;14.80;;;10.37;;
4704;SDS011;2366;51.332;6.610;2023-04-05T13:44:35;11.47;;;8.87;;
4704;SDS011;2366;51.332;6.610;2023-04-05T13:47:02;18.75;;;10.85;;
4704;SDS011;2366;51.332;6.610;2023-04-05T13:49:27;13.73;;;8.70;;
4704;SDS011;2366;51.332;6.610;2023-04-05T13:51:52;14.33;;;9.83;;
4704;SDS011;2366;51.332;6.610;2023-04-05T13:54:18;9.47;;;8.27;;
4704;SDS011;2366;51.332;6.610;2023-04-05T13:56:43;16.33;;;9.00;;
4704;SDS011;2366;51.332;6.610;2023-04-05T13:59:09;18.37;;;10.30;;
4704;SDS011;2366;51.332;6.610;2023-04-05T14:01:40;10.88;;;8.15;;
4704;SDS011;2366;51.332;6.610;2023-04-05T14:04:05;18.77;;;8.90;;
4704;SDS011;2366;51.332;6.610;2023-04-05T14:06:31;13.33;;;7.70;;
4704;SDS011;2366;51.332;6.610;2023-04-05T14:08:56;14.27;;;8.43;;
4704;SDS011;2366;51.332;6.610;2023-04-05T14:11:21;11.30;;;10.13;;
4704;SDS011;2366;51.332;6.610;2023-04-05T14:13:47;11.57;;;8.40;;
4704;SDS011;2366;51.332;6.610;2023-04-05T14:16:13;12.88;;;10.18;;
4704;SDS011;2366;51.332;6.610;2023-04-05T14:18:39;12.57;;;8.60;;
4704;SDS011;2366;51.332;6.610;2023-04-05T14:21:05;14.67;;;9.23;;
4704;SDS011;2366;51.332;6.610;2023-04-05T14:23:30;12.67;;;9.00;;
4704;SDS011;2366;51.332;6.610;2023-04-05T14:25:56;17.33;;;10.10;;
4704;SDS011;2366;51.332;6.610;2023-04-05T14:28:21;11.80;;;8.43;;
4704;SDS011;2366;51.332;6.610;2023-04-05T14:30:47;11.90;;;7.33;;
4704;SDS011;2366;51.332;6.610;2023-04-05T14:33:13;12.85;;;9.27;;
4704;SDS011;2366;51.332;6.610;2023-04-05T14:35:40;13.13;;;9.15;;
4704;SDS011;2366;51.332;6.610;2023-04-05T14:38:06;16.33;;;9.67;;
4704;SDS011;2366;51.332;6.610;2023-04-05T14:40:31;12.03;;;8.47;;
4704;SDS011;2366;51.332;6.610;2023-04-05T14:42:56;10.47;;;9.20;;
4704;SDS011;2366;51.332;6.610;2023-04-05T14:45:22;12.53;;;7.87;;
4704;SDS011;2366;51.332;6.610;2023-04-05T14:47:51;14.95;;;8.75;;
4704;SDS011;2366;51.332;6.610;2023-04-05T14:50:16;16.37;;;9.73;;
4704;SDS011;2366;51.332;6.610;2023-04-05T14:52:42;13.93;;;9.47;;
4704;SDS011;2366;51.332;6.610;2023-04-05T14:55:09;12.85;;;8.13;;
4704;SDS011;2366;51.332;6.610;2023-04-05T14:57:37;12.75;;;10.07;;
4704;SDS011;2366;51.332;6.610;2023-04-05T15:00:03;16.90;;;9.40;;
4704;SDS011;2366;51.332;6.610;2023-04-05T15:02:29;15.85;;;9.35;;
4704;SDS011;2366;51.332;6.610;2023-04-05T15:04:55;15.63;;;9.10;;
4704;SDS011;2366;51.332;6.610;2023-04-05T15:07:24;15.30;;;8.90;;
4704;SDS011;2366;51.332;6.610;2023-04-05T15:09:50;16.80;;;10.35;;
4704;SDS011;2366;51.332;6.610;2023-04-05T15:12:15;12.10;;;8.90;;
4704;SDS011;2366;51.332;6.610;2023-04-05T15:14:41;11.93;;;9.00;;
4704;SDS011;2366;51.332;6.610;2023-04-05T15:17:06;14.63;;;9.47;;
4704;SDS011;2366;51.332;6.610;2023-04-05T15:19:32;14.57;;;9.93;;
4704;SDS011;2366;51.332;6.610;2023-04-05T15:21:59;17.83;;;9.65;;
4704;SDS011;2366;51.332;6.610;2023-04-05T15:24:25;14.70;;;8.37;;
4704;SDS011;2366;51.332;6.610;2023-04-05T15:26:50;9.10;;;7.50;;
4704;SDS011;2366;51.332;6.610;2023-04-05T15:29:15;14.80;;;9.20;;
4704;SDS011;2366;51.332;6.610;2023-04-05T15:31:41;12.43;;;9.17;;
4704;SDS011;2366;51.332;6.610;2023-04-05T15:34:06;15.67;;;9.03;;
4704;SDS011;2366;51.332;6.610;2023-04-05T15:36:32;11.60;;;8.30;;
4704;SDS011;2366;51.332;6.610;2023-04-05T15:38:57;14.40;;;9.40;;
4704;SDS011;2366;51.332;6.610;2023-04-05T15:41:22;12.80;;;8.50;;